createdAt,value
2022-10-12T00:00:38.954Z,70.27
2022-10-12T00:03:08.516Z,70.52
2022-10-12T00:05:38.292Z,70.18
2022-10-12T00:08:08.101Z,70.64
2022-10-12T00:10:42.388Z,70.53
2022-10-12T00:13:12.459Z,70.99
2022-10-12T00:15:42.447Z,70.88
2022-10-12T00:18:12.344Z,70.64
2022-10-12T00:20:41.920Z,71.07
2022-10-12T00:23:12.082Z,70.90
2022-10-12T00:25:43.083Z,71.05
2022-10-12T00:28:12.644Z,71.50
2022-10-12T00:30:42.585Z,71.60
2022-10-12T00:33:12.176Z,71.27
2022-10-12T00:35:41.976Z,71.48
2022-10-12T00:38:11.907Z,71.52
2022-10-12T00:40:42.961Z,71.19
2022-10-12T00:43:26.004Z,71.26
2022-10-12T00:45:55.661Z,70.83
2022-10-12T00:48:25.767Z,71.78
2022-10-12T00:50:55.999Z,71.21
2022-10-12T00:53:27.548Z,70.64
2022-10-12T00:56:00.619Z,70.25
2022-10-12T00:58:31.588Z,70.41
2022-10-12T01:01:02.396Z,70.63
2022-10-12T01:03:32.664Z,70.42
2022-10-12T01:06:02.472Z,70.71
2022-10-12T01:08:32.106Z,70.24
2022-10-12T01:11:03.164Z,70.55
2022-10-12T01:13:33.503Z,70.69
2022-10-12T01:16:06.586Z,70.07
2022-10-12T01:18:41.431Z,70.05
2022-10-12T01:21:15.181Z,70.08
2022-10-12T01:24:02.666Z,70.56
2022-10-12T01:26:59.416Z,70.31
2022-10-12T01:29:40.460Z,70.50
2022-10-12T01:32:15.010Z,70.11
2022-10-12T01:34:46.271Z,70.25
2022-10-12T01:37:19.911Z,70.80
2022-10-12T01:39:53.351Z,70.45
2022-10-12T01:42:26.735Z,70.06
2022-10-12T01:45:02.509Z,70.31
2022-10-12T01:47:34.131Z,70.18
2022-10-12T01:50:04.550Z,70.08
2022-10-12T01:52:36.428Z,70.65
2022-10-12T01:55:18.098Z,70.33
2022-10-12T01:58:11.655Z,70.91
2022-10-12T02:00:43.894Z,70.84
2022-10-12T02:03:21.467Z,71.27
2022-10-12T02:05:53.173Z,71.38
2022-10-12T02:08:25.628Z,71.20
2022-10-12T02:10:56.900Z,71.16
2022-10-12T02:13:29.458Z,71.38
2022-10-12T02:16:00.535Z,71.22
2022-10-12T02:18:31.753Z,71.90
2022-10-12T02:21:01.797Z,72.51
2022-10-12T02:23:31.349Z,71.89
2022-10-12T02:26:02.883Z,72.34
2022-10-12T02:28:35.666Z,72.25
2022-10-12T02:31:09.804Z,71.71
2022-10-12T02:33:44.047Z,71.43
2022-10-12T02:36:16.941Z,71.37
2022-10-12T02:38:49.598Z,71.79
2022-10-12T02:41:22.434Z,71.90
2022-10-12T02:43:55.155Z,71.72
2022-10-12T02:46:29.853Z,72.50
2022-10-12T02:49:01.207Z,72.90
2022-10-12T02:51:31.152Z,72.59
2022-10-12T02:54:01.634Z,72.50
2022-10-12T02:56:31.252Z,72.88
2022-10-12T02:59:01.138Z,72.69
2022-10-12T03:01:31.052Z,72.86
2022-10-12T03:04:02.703Z,73.19
2022-10-12T03:06:32.435Z,72.95
2022-10-12T03:09:02.096Z,72.95
2022-10-12T03:11:31.817Z,72.81
2022-10-12T03:14:02.262Z,73.03
2022-10-12T03:16:32.281Z,72.81
2022-10-12T03:19:03.263Z,72.71
2022-10-12T03:21:32.882Z,73.34
2022-10-12T03:24:02.551Z,74.13
2022-10-12T03:26:32.082Z,73.27
2022-10-12T03:29:01.735Z,73.42
2022-10-12T03:31:31.441Z,72.91
2022-10-12T03:34:01.104Z,73.72
2022-10-12T03:36:32.273Z,73.86
2022-10-12T03:39:02.102Z,73.80
2022-10-12T03:41:31.660Z,73.62
2022-10-12T03:44:01.397Z,73.63
2022-10-12T03:46:31.023Z,73.15
2022-10-12T03:49:00.886Z,73.45
2022-10-12T03:51:30.539Z,73.20
2022-10-12T03:54:01.486Z,73.07
2022-10-12T03:56:31.022Z,73.13
2022-10-12T03:59:00.569Z,73.30
2022-10-12T04:01:30.468Z,73.14
2022-10-12T04:04:00.132Z,73.33
2022-10-12T04:06:29.967Z,73.54
2022-10-12T04:09:01.807Z,73.31
2022-10-12T04:11:31.662Z,72.96
2022-10-12T04:14:01.875Z,72.76
2022-10-12T04:16:31.741Z,73.31
2022-10-12T04:19:01.379Z,73.04
2022-10-12T04:21:32.126Z,73.25
2022-10-12T04:24:03.153Z,73.25
2022-10-12T04:26:32.938Z,73.19
2022-10-12T04:29:02.689Z,72.93
2022-10-12T04:31:32.443Z,72.68
2022-10-12T04:34:02.180Z,73.43
2022-10-12T04:36:31.804Z,73.16
2022-10-12T04:39:01.526Z,72.96
2022-10-12T04:41:33.029Z,72.46
2022-10-12T04:44:02.697Z,72.87
2022-10-12T04:46:32.337Z,72.59
2022-10-12T04:49:01.971Z,72.94
2022-10-12T04:51:31.930Z,72.76
2022-10-12T04:54:02.079Z,72.17
2022-10-12T04:56:33.249Z,72.67
2022-10-12T04:59:02.981Z,72.61
2022-10-12T05:01:32.858Z,71.99
2022-10-12T05:04:02.737Z,72.25
2022-10-12T05:06:32.589Z,72.33
2022-10-12T05:09:02.126Z,72.11
2022-10-12T05:11:33.259Z,71.48
2022-10-12T05:14:03.660Z,71.46
2022-10-12T05:16:33.840Z,71.65
2022-10-12T05:19:03.455Z,71.98
2022-10-12T05:21:33.139Z,71.18
2022-10-12T05:24:02.749Z,70.98
2022-10-12T05:26:33.867Z,71.29
2022-10-12T05:29:03.825Z,71.45
2022-10-12T05:31:33.403Z,71.18
2022-10-12T05:34:03.132Z,71.08
2022-10-12T05:36:36.610Z,70.83
2022-10-12T05:39:09.882Z,72.08
2022-10-12T05:42:05.379Z,71.65
2022-10-12T05:44:49.582Z,71.06
2022-10-12T05:47:25.151Z,71.20
2022-10-12T05:50:02.427Z,70.82
2022-10-12T05:52:38.258Z,71.25
2022-10-12T05:55:13.538Z,71.42
2022-10-12T05:58:07.598Z,71.08
2022-10-12T06:00:43.919Z,70.64
2022-10-12T06:03:19.856Z,70.91
2022-10-12T06:05:54.558Z,70.79
2022-10-12T06:08:34.758Z,70.70
2022-10-12T06:11:19.005Z,70.64
2022-10-12T06:14:05.234Z,70.46
2022-10-12T06:16:39.604Z,70.54
2022-10-12T06:19:18.988Z,70.38
2022-10-12T06:21:51.477Z,70.41
2022-10-12T06:24:25.142Z,70.23
2022-10-12T06:27:02.772Z,70.15
2022-10-12T06:29:39.665Z,69.96
2022-10-12T06:32:11.889Z,69.78
2022-10-12T06:34:52.951Z,69.77
2022-10-12T06:37:48.674Z,69.53
2022-10-12T06:40:16.130Z,69.98
2022-10-12T06:42:46.386Z,69.50
2022-10-12T06:45:18.907Z,69.15
2022-10-12T06:47:49.017Z,69.16
2022-10-12T06:50:18.729Z,69.73
2022-10-12T06:52:48.387Z,69.38
2022-10-12T06:55:18.058Z,69.08
2022-10-12T06:57:47.963Z,68.65
2022-10-12T07:00:19.320Z,68.46
2022-10-12T07:02:50.128Z,68.48
2022-10-12T07:05:21.042Z,67.86
2022-10-12T07:07:50.936Z,67.71
2022-10-12T07:10:20.894Z,68.01
2022-10-12T07:12:51.557Z,67.57
2022-10-12T07:15:23.244Z,67.88
2022-10-12T07:17:52.914Z,67.50
2022-10-12T07:20:22.638Z,67.44
2022-10-12T07:22:53.512Z,67.05
2022-10-12T07:25:23.310Z,66.85
2022-10-12T07:27:52.870Z,66.55
2022-10-12T07:30:39.908Z,66.28
2022-10-12T07:33:09.636Z,65.81
2022-10-12T07:35:56.919Z,65.80
2022-10-12T07:38:29.552Z,65.85
2022-10-12T07:41:00.290Z,65.70
2022-10-12T07:43:31.782Z,66.27
2022-10-12T07:46:04.437Z,65.38
2022-10-12T07:48:34.198Z,64.90
2022-10-12T07:51:04.697Z,65.08
2022-10-12T07:53:34.875Z,64.93
2022-10-12T07:56:05.411Z,64.82
2022-10-12T07:58:35.471Z,65.10
2022-10-12T08:01:07.017Z,64.81
2022-10-12T08:03:37.008Z,64.79
2022-10-12T08:06:10.720Z,64.93
2022-10-12T08:08:40.374Z,64.38
2022-10-12T08:11:10.826Z,64.44
2022-10-12T08:13:41.711Z,64.67
2022-10-12T08:16:14.410Z,65.01
2022-10-12T08:18:44.589Z,64.61
2022-10-12T08:21:15.081Z,64.54
2022-10-12T08:23:45.230Z,64.30
2022-10-12T08:26:15.811Z,64.74
2022-10-12T08:28:45.914Z,64.34
2022-10-12T08:31:17.741Z,64.22
2022-10-12T08:33:47.481Z,63.89
2022-10-12T08:36:17.496Z,63.40
2022-10-12T08:38:53.906Z,63.20
2022-10-12T08:41:47.327Z,63.75
2022-10-12T08:44:37.828Z,63.63
2022-10-12T08:47:12.508Z,63.70
2022-10-12T08:49:47.437Z,63.81
2022-10-12T08:52:24.823Z,64.11
2022-10-12T08:54:54.706Z,63.22
2022-10-12T08:57:24.337Z,61.56
2022-10-12T08:59:54.124Z,61.54
2022-10-12T09:02:36.273Z,61.99
2022-10-12T09:05:09.119Z,61.41
2022-10-12T09:07:41.256Z,60.29
2022-10-12T09:10:19.685Z,59.68
2022-10-12T09:12:56.031Z,60.69
2022-10-12T09:15:29.436Z,60.81
2022-10-12T09:18:01.621Z,60.90
2022-10-12T09:20:32.831Z,61.11
2022-10-12T09:23:04.491Z,61.01
2022-10-12T09:25:34.726Z,60.86
2022-10-12T09:28:14.472Z,60.76
2022-10-12T09:30:48.191Z,60.06
2022-10-12T09:33:23.033Z,59.61
2022-10-12T09:35:54.069Z,59.83
2022-10-12T09:38:24.532Z,59.46
2022-10-12T09:40:54.252Z,59.57
2022-10-12T09:43:24.219Z,59.34
2022-10-12T09:45:54.262Z,59.07
2022-10-12T09:48:26.371Z,59.54
2022-10-12T09:50:57.108Z,59.44
2022-10-12T09:53:28.765Z,59.11
2022-10-12T09:55:59.800Z,59.08
2022-10-12T09:58:30.112Z,58.36
2022-10-12T10:01:16.398Z,58.18
2022-10-12T10:03:48.574Z,57.75
2022-10-12T10:06:23.720Z,57.66
2022-10-12T10:08:53.397Z,57.46
2022-10-12T10:11:24.384Z,57.56
2022-10-12T10:13:55.099Z,57.03
2022-10-12T10:16:26.895Z,57.30
2022-10-12T10:18:58.758Z,57.55
2022-10-12T10:21:30.320Z,57.05
2022-10-12T10:24:01.136Z,56.78
2022-10-12T10:26:32.320Z,56.56
2022-10-12T10:29:16.716Z,56.07
2022-10-12T10:31:48.285Z,55.51
2022-10-12T10:34:24.218Z,55.51
2022-10-12T10:36:55.977Z,54.69
2022-10-12T10:39:27.019Z,54.01
2022-10-12T10:41:56.739Z,53.88
2022-10-12T10:44:28.047Z,53.66
2022-10-12T10:46:59.031Z,53.56
2022-10-12T10:49:37.785Z,53.16
2022-10-12T10:52:08.771Z,52.83
2022-10-12T10:54:39.240Z,52.58
2022-10-12T10:57:13.086Z,52.71
2022-10-12T10:59:48.736Z,51.78
2022-10-12T11:02:24.696Z,52.45
2022-10-12T11:04:59.391Z,52.51
2022-10-12T11:07:32.129Z,52.07
2022-10-12T11:10:04.167Z,52.23
2022-10-12T11:12:37.096Z,52.72
2022-10-12T11:15:09.500Z,51.76
2022-10-12T11:17:41.305Z,51.10
2022-10-12T11:20:26.496Z,51.25
2022-10-12T11:22:58.897Z,51.18
2022-10-12T11:25:32.144Z,51.32
2022-10-12T11:28:02.238Z,51.71
2022-10-12T11:30:37.186Z,51.00
2022-10-12T11:33:09.593Z,51.38
2022-10-12T11:35:42.647Z,49.96
2022-10-12T11:38:17.343Z,47.73
2022-10-12T11:43:41.868Z,47.98
2022-10-12T11:46:13.538Z,48.45
2022-10-12T11:48:47.693Z,47.03
2022-10-12T11:51:18.634Z,47.32
2022-10-12T11:53:52.340Z,45.52
2022-10-12T11:56:24.079Z,44.71
2022-10-12T11:59:01.178Z,45.40
2022-10-12T12:01:40.969Z,46.43
2022-10-12T12:04:42.598Z,46.70
2022-10-12T12:07:31.830Z,46.34
2022-10-12T12:10:02.840Z,47.03
2022-10-12T12:12:33.364Z,47.78
2022-10-12T12:15:07.732Z,47.49
2022-10-12T12:17:38.881Z,46.86
2022-10-12T12:20:23.240Z,47.60
2022-10-12T12:22:55.089Z,48.09
2022-10-12T12:25:29.409Z,48.18
2022-10-12T12:28:00.647Z,48.62
2022-10-12T12:30:35.974Z,48.86
2022-10-12T12:33:07.914Z,48.91
2022-10-12T12:35:39.703Z,49.38
2022-10-12T12:38:21.075Z,49.08
2022-10-12T12:41:09.170Z,49.09
2022-10-12T12:44:02.445Z,48.63
2022-10-12T12:46:50.587Z,48.12
2022-10-12T12:49:28.295Z,48.16
2022-10-12T12:51:59.858Z,48.12
2022-10-12T12:54:29.948Z,47.37
2022-10-12T12:57:14.381Z,45.22
2022-10-12T13:00:04.488Z,44.77
2022-10-12T13:02:53.307Z,45.95
2022-10-12T13:05:41.069Z,45.43
2022-10-12T13:08:25.080Z,46.55
2022-10-12T13:11:06.571Z,44.25
2022-10-12T13:13:49.651Z,42.83
2022-10-12T13:17:30.682Z,42.42
2022-10-12T13:19:36.956Z,39.54
2022-10-12T13:22:12.203Z,39.45
2022-10-12T13:24:45.703Z,40.20
2022-10-12T13:27:19.383Z,39.32
2022-10-12T13:29:54.294Z,39.65
2022-10-12T13:32:30.499Z,39.99
2022-10-12T13:35:06.206Z,40.91
2022-10-12T13:37:36.271Z,40.49
2022-10-12T13:40:06.408Z,41.56
2022-10-12T13:42:36.650Z,41.15
2022-10-12T13:45:08.978Z,41.80
2022-10-12T13:47:43.166Z,39.81
2022-10-12T13:50:19.777Z,40.00
2022-10-12T13:52:54.533Z,41.88
2022-10-12T13:55:26.793Z,43.77
2022-10-12T13:57:56.386Z,41.36
2022-10-12T14:00:27.497Z,39.96
2022-10-12T14:02:58.739Z,39.92
2022-10-12T14:05:30.665Z,39.69
2022-10-12T14:08:03.151Z,42.34
2022-10-12T14:10:34.153Z,43.34
2022-10-12T14:13:05.607Z,42.71
2022-10-12T14:15:36.889Z,43.73
2022-10-12T14:18:26.664Z,44.67
2022-10-12T14:21:06.737Z,41.13
2022-10-12T14:23:36.418Z,39.10
2022-10-12T14:26:06.359Z,38.67
2022-10-12T14:28:36.099Z,41.03
2022-10-12T14:31:05.714Z,37.96
2022-10-12T14:33:35.260Z,38.32
2022-10-12T14:36:16.717Z,40.69
2022-10-12T14:38:47.744Z,41.46
2022-10-12T14:41:44.723Z,40.27
2022-10-12T14:44:16.064Z,41.00
2022-10-12T14:46:51.442Z,42.35
2022-10-12T14:49:22.896Z,41.17
2022-10-12T14:51:55.396Z,42.80
2022-10-12T14:54:25.069Z,42.84
2022-10-12T14:56:55.124Z,43.62
2022-10-12T14:59:24.709Z,42.77
2022-10-12T15:01:54.731Z,43.58
2022-10-12T15:04:24.643Z,43.91
2022-10-12T15:06:55.854Z,42.43
2022-10-12T15:09:25.475Z,42.60
2022-10-12T15:11:55.614Z,43.23
2022-10-12T15:14:25.679Z,42.24
2022-10-12T15:16:57.892Z,42.18
2022-10-12T15:19:27.565Z,39.95
2022-10-12T15:21:58.611Z,39.77
2022-10-12T15:24:28.217Z,37.73
2022-10-12T15:26:58.075Z,39.24
2022-10-12T15:29:28.248Z,38.69
2022-10-12T15:31:59.517Z,40.19
2022-10-12T15:34:30.056Z,39.35
2022-10-12T15:37:04.159Z,40.23
2022-10-12T15:39:39.601Z,39.41
2022-10-12T15:42:09.308Z,39.01
2022-10-12T15:44:40.507Z,39.51
2022-10-12T15:47:11.415Z,39.30
2022-10-12T15:49:41.628Z,40.64
2022-10-12T15:52:12.983Z,40.23
2022-10-12T15:54:46.838Z,39.78
2022-10-12T15:57:18.425Z,39.81
2022-10-12T15:59:48.885Z,39.99
2022-10-12T16:02:21.017Z,40.42
2022-10-12T16:04:50.588Z,40.69
2022-10-12T16:07:21.934Z,40.67
2022-10-12T16:09:51.701Z,41.69
2022-10-12T16:12:21.519Z,42.52
2022-10-12T16:14:51.572Z,42.61
2022-10-12T16:17:21.548Z,42.21
2022-10-12T16:19:51.168Z,42.82
2022-10-12T16:22:22.219Z,43.17
2022-10-12T16:24:52.174Z,43.15
2022-10-12T16:27:21.834Z,43.59
2022-10-12T16:29:51.733Z,44.02
2022-10-12T16:32:21.623Z,44.32
2022-10-12T16:34:51.660Z,44.65
2022-10-12T16:37:22.790Z,46.14
2022-10-12T16:39:53.865Z,46.02
2022-10-12T16:42:23.859Z,45.88
2022-10-12T16:44:53.594Z,45.93
2022-10-12T16:47:23.939Z,45.91
2022-10-12T16:49:53.950Z,46.65
2022-10-12T16:52:25.589Z,46.80
2022-10-12T16:54:55.974Z,46.58
2022-10-12T16:57:25.730Z,46.68
2022-10-12T16:59:55.328Z,47.14
2022-10-12T17:02:24.971Z,47.38
2022-10-12T17:04:54.682Z,47.78
2022-10-12T17:07:25.711Z,48.22
2022-10-12T17:09:56.367Z,48.66
2022-10-12T17:12:27.578Z,48.43
2022-10-12T17:14:57.912Z,48.41
2022-10-12T17:17:27.915Z,48.61
2022-10-12T17:19:57.734Z,48.48
2022-10-12T17:22:28.993Z,47.46
2022-10-12T17:24:58.689Z,47.75
2022-10-12T17:27:32.078Z,47.72
2022-10-12T17:30:02.048Z,47.84
2022-10-12T17:32:31.928Z,48.35
2022-10-12T17:35:01.448Z,48.38
2022-10-12T17:37:32.476Z,47.95
2022-10-12T17:40:02.217Z,48.26
2022-10-12T17:42:31.777Z,48.15
2022-10-12T17:45:01.466Z,48.44
2022-10-12T17:47:31.269Z,48.30
2022-10-12T17:50:01.065Z,48.80
2022-10-12T17:52:37.866Z,48.92
2022-10-12T17:55:15.203Z,49.50
2022-10-12T17:57:53.899Z,49.45
2022-10-12T18:00:23.583Z,49.18
2022-10-12T18:02:53.316Z,49.01
2022-10-12T18:05:22.914Z,48.54
2022-10-12T18:07:53.903Z,48.67
2022-10-12T18:10:26.122Z,48.29
2022-10-12T18:12:58.087Z,48.05
2022-10-12T18:15:28.020Z,48.04
2022-10-12T18:17:57.664Z,48.16
2022-10-12T18:20:29.340Z,48.51
2022-10-12T18:23:00.451Z,48.31
2022-10-12T18:25:31.068Z,48.42
2022-10-12T18:28:00.704Z,48.70
2022-10-12T18:30:31.655Z,48.64
2022-10-12T18:33:02.010Z,48.88
2022-10-12T18:35:35.314Z,49.38
2022-10-12T18:38:06.253Z,49.48
2022-10-12T18:40:41.155Z,49.94
2022-10-12T18:43:11.831Z,49.84
2022-10-12T18:45:45.078Z,50.12
2022-10-12T18:48:15.176Z,50.05
2022-10-12T18:50:44.808Z,50.11
2022-10-12T18:53:15.925Z,50.63
2022-10-12T18:55:45.436Z,50.51
2022-10-12T18:58:15.125Z,50.88
2022-10-12T19:00:44.929Z,51.10
2022-10-12T19:03:14.611Z,51.59
2022-10-12T19:05:44.324Z,51.80
2022-10-12T19:08:15.255Z,52.14
2022-10-12T19:10:45.083Z,52.31
2022-10-12T19:13:15.428Z,52.01
2022-10-12T19:15:45.530Z,52.67
2022-10-12T19:18:15.214Z,52.58
2022-10-12T19:20:44.779Z,52.74
2022-10-12T19:23:17.905Z,53.15
2022-10-12T19:25:48.191Z,53.18
2022-10-12T19:28:17.851Z,53.54
2022-10-12T19:30:47.667Z,53.52
2022-10-12T19:33:17.251Z,54.24
2022-10-12T19:35:46.864Z,54.53
2022-10-12T19:38:17.908Z,54.21
2022-10-12T19:40:47.757Z,53.83
2022-10-12T19:43:17.373Z,53.84
2022-10-12T19:45:46.969Z,54.29
2022-10-12T19:48:16.634Z,54.08
2022-10-12T19:50:46.402Z,54.53
2022-10-12T19:53:17.496Z,55.28
2022-10-12T19:55:48.569Z,55.41
2022-10-12T19:58:18.198Z,55.02
2022-10-12T20:00:51.270Z,55.51
2022-10-12T20:03:21.160Z,55.45
2022-10-12T20:05:50.746Z,55.44
2022-10-12T20:08:21.977Z,55.42
2022-10-12T20:10:51.685Z,55.78
2022-10-12T20:13:21.723Z,55.79
2022-10-12T20:15:52.910Z,55.72
2022-10-12T20:18:22.685Z,56.52
2022-10-12T20:20:52.338Z,56.15
2022-10-12T20:23:23.533Z,56.21
2022-10-12T20:25:54.223Z,56.34
2022-10-12T20:28:23.782Z,56.19
2022-10-12T20:30:53.707Z,56.57
2022-10-12T20:33:23.335Z,56.73
2022-10-12T20:35:52.980Z,56.75
2022-10-12T20:38:24.715Z,56.53
2022-10-12T20:41:02.244Z,56.63
2022-10-12T20:43:31.947Z,56.77
2022-10-12T20:46:02.959Z,56.50
2022-10-12T20:48:34.428Z,56.87
2022-10-12T20:51:06.209Z,57.23
2022-10-12T20:53:37.888Z,56.97
2022-10-12T20:56:08.765Z,56.48
2022-10-12T20:58:38.399Z,56.75
2022-10-12T21:01:09.674Z,57.01
2022-10-12T21:03:39.565Z,56.85
2022-10-12T21:06:10.720Z,57.13
2022-10-12T21:08:41.803Z,57.19
2022-10-12T21:11:11.912Z,57.28
2022-10-12T21:13:44.493Z,57.25
2022-10-12T21:16:15.471Z,57.14
2022-10-12T21:18:46.480Z,57.30
2022-10-12T21:21:17.237Z,57.47
2022-10-12T21:23:53.171Z,57.42
2022-10-12T21:26:23.605Z,57.54
2022-10-12T21:28:53.701Z,57.26
2022-10-12T21:31:29.477Z,57.13
2022-10-12T21:34:02.311Z,57.56
2022-10-12T21:36:32.457Z,57.66
2022-10-12T21:39:03.947Z,57.92
2022-10-12T21:41:34.128Z,58.12
2022-10-12T21:44:13.612Z,58.44
2022-10-12T21:46:43.369Z,58.63
2022-10-12T21:49:13.221Z,59.08
2022-10-12T21:51:42.999Z,58.93
2022-10-12T21:54:14.213Z,59.62
2022-10-12T21:56:43.817Z,59.74
2022-10-12T21:59:13.371Z,59.55
2022-10-12T22:01:43.018Z,59.78
2022-10-12T22:04:13.906Z,59.77
2022-10-12T22:06:44.365Z,59.51
2022-10-12T22:09:16.975Z,60.19
2022-10-12T22:11:47.918Z,60.29
2022-10-12T22:14:18.509Z,59.89
2022-10-12T22:16:48.486Z,59.41
2022-10-12T22:19:19.552Z,59.62
2022-10-12T22:21:49.797Z,60.38
2022-10-12T22:24:31.018Z,60.26
2022-10-12T22:27:01.425Z,60.33
2022-10-12T22:29:31.015Z,60.45
2022-10-12T22:32:03.903Z,60.23
2022-10-12T22:34:33.442Z,60.20
2022-10-12T22:37:03.349Z,60.92
2022-10-12T22:39:34.247Z,60.18
2022-10-12T22:42:03.741Z,60.55
2022-10-12T22:44:33.380Z,60.20
2022-10-12T22:47:03.004Z,61.00
2022-10-12T22:49:32.552Z,60.74
2022-10-12T22:52:02.240Z,61.07
2022-10-12T22:54:32.008Z,60.90
2022-10-12T22:57:02.926Z,60.88
2022-10-12T22:59:32.570Z,61.08
2022-10-12T23:02:02.190Z,61.35
2022-10-12T23:04:31.799Z,61.61
2022-10-12T23:07:01.454Z,61.38
2022-10-12T23:09:30.998Z,61.47
2022-10-12T23:12:01.116Z,61.20
2022-10-12T23:14:32.676Z,62.00
2022-10-12T23:17:02.667Z,62.19
2022-10-12T23:19:32.279Z,62.10
2022-10-12T23:22:01.954Z,62.23
2022-10-12T23:24:31.623Z,62.33
2022-10-12T23:27:01.197Z,62.79
2022-10-12T23:29:32.198Z,62.69
2022-10-12T23:32:01.821Z,62.58
2022-10-12T23:34:31.563Z,62.42
2022-10-12T23:37:01.189Z,62.64
2022-10-12T23:39:30.763Z,62.37
2022-10-12T23:42:00.922Z,62.73
2022-10-12T23:44:30.515Z,62.20
2022-10-12T23:47:01.538Z,62.49
2022-10-12T23:49:31.241Z,63.04
2022-10-12T23:52:00.839Z,62.76
2022-10-12T23:54:30.509Z,62.97
2022-10-12T23:57:00.267Z,63.32
2022-10-12T23:59:29.832Z,63.84
